Time;durP1;ratioP1;P1;durP2;ratioP2;P2;SDS_P1;SDS_P2;PMS_P1;PMS_P2;Temp;Humidity;BMP_temperature;BMP_pressure;BME280_temperature;BME280_humidity;BME280_pressure;Samples;Min_cycle;Max_cycle;Signal;HPM_P1;HPM_P2
2021/11/20 00:01:42;;;;;;;;;;;;;;;5.50;62.67;96734.84;5025873;28;19948;-59
2021/11/20 00:04:07;;;;;;;;;;;;;;;5.41;62.71;96733.75;5027607;28;19921;-59
2021/11/20 00:06:34;;;;;;;;;;;;;;;5.14;63.98;96737.53;5028403;28;19913;-59
2021/11/20 00:08:59;;;;;;;;;;;;;;;5.43;62.68;96731.81;5027172;28;19957;-60
2021/11/20 00:11:25;;;;;;;;;;;;;;;5.00;64.42;96733.28;5010038;28;20030;-61
2021/11/20 00:13:51;;;;;;;;;;;;;;;5.26;63.55;96719.91;5027463;28;20165;-59
2021/11/20 00:16:17;;;;;;;;;;;;;;;5.79;61.64;96718.53;5027572;28;19943;-59
2021/11/20 00:18:42;;;;;;;;;;;;;;;6.03;60.89;96722.81;5027946;28;19956;-60
2021/11/20 00:21:15;;;;;;;;;;;;;;;6.18;60.02;96731.34;5027469;28;19957;-59
2021/11/20 00:23:42;;;;;;;;;;;;;;;6.00;60.54;96723.91;5027026;28;20161;-60
2021/11/20 00:26:09;;;;;;;;;;;;;;;5.43;61.99;96722.09;5027569;28;19952;-60
2021/11/20 00:28:41;;;;;;;;;;;;;;;5.06;63.57;96724.91;5009030;28;20441;-60
2021/11/20 00:31:07;;;;;;;;;;;;;;;5.63;61.92;96721.50;5009556;28;19927;-59
2021/11/20 00:33:32;;;;;;;;;;;;;;;5.45;62.13;96720.19;5008812;28;19921;-59
2021/11/20 00:35:59;;;;;;;;;;;;;;;5.31;62.11;96720.41;5027338;28;19921;-60
2021/11/20 00:38:24;;;;;;;;;;;;;;;5.37;62.60;96714.66;5009259;28;20342;-60
2021/11/20 00:40:58;;;;;;;;;;;;;;;5.41;62.00;96710.81;5022134;28;19917;-59
2021/11/20 00:43:23;;;;;;;;;;;;;;;5.99;60.53;96701.91;5027239;28;19917;-60
2021/11/20 00:45:49;;;;;;;;;;;;;;;5.76;60.73;96705.53;5027048;28;19963;-59
2021/11/20 00:48:14;;;;;;;;;;;;;;;5.85;60.73;96700.38;5026788;28;20425;-60
2021/11/20 00:50:40;;;;;;;;;;;;;;;5.65;61.29;96715.19;5026749;28;19917;-59
2021/11/20 00:53:06;;;;;;;;;;;;;;;5.84;60.66;96696.06;5026540;28;20011;-60
2021/11/20 00:55:31;;;;;;;;;;;;;;;5.32;62.23;96696.53;5009250;28;20032;-61
2021/11/20 00:57:57;;;;;;;;;;;;;;;5.27;62.55;96692.56;5020699;28;20425;-59
2021/11/20 01:00:23;;;;;;;;;;;;;;;4.90;63.70;96699.63;5019422;28;19921;-61
2021/11/20 01:02:48;;;;;;;;;;;;;;;4.68;64.92;96700.41;5026754;28;19929;-59
2021/11/20 01:05:14;;;;;;;;;;;;;;;5.14;63.72;96696.13;5026422;28;19917;-59
2021/11/20 01:07:39;;;;;;;;;;;;;;;5.51;62.00;96699.56;5026260;28;19917;-60
2021/11/20 01:10:05;;;;;;;;;;;;;;;5.65;61.67;96683.47;5026798;28;20058;-58
2021/11/20 01:12:31;;;;;;;;;;;;;;;5.37;62.65;96680.31;5025121;28;19921;-60
2021/11/20 01:14:56;;;;;;;;;;;;;;;5.18;63.17;96688.81;5027092;28;20000;-61
2021/11/20 01:17:24;;;;;;;;;;;;;;;5.39;62.42;96688.13;5026405;28;19921;-59
2021/11/20 01:19:50;;;;;;;;;;;;;;;4.98;63.63;96693.78;5026052;28;19921;-59
2021/11/20 01:22:15;;;;;;;;;;;;;;;4.53;65.18;96694.47;5026605;28;20172;-61
2021/11/20 01:24:41;;;;;;;;;;;;;;;4.83;63.77;96688.69;5026285;28;19917;-60
2021/11/20 01:27:06;;;;;;;;;;;;;;;5.37;62.55;96682.97;5026303;28;19917;-59
2021/11/20 01:29:31;;;;;;;;;;;;;;;5.61;61.65;96679.34;5025911;28;19921;-60
2021/11/20 01:31:57;;;;;;;;;;;;;;;5.45;62.21;96679.72;5025694;28;19918;-59
2021/11/20 01:34:25;;;;;;;;;;;;;;;5.47;61.83;96686.56;5026319;28;19917;-61
2021/11/20 01:36:51;;;;;;;;;;;;;;;4.94;63.65;96681.78;5025857;28;20008;-60
2021/11/20 01:39:17;;;;;;;;;;;;;;;5.43;61.89;96679.00;5021082;28;19966;-59
2021/11/20 01:41:43;;;;;;;;;;;;;;;5.37;61.63;96680.31;5025782;28;20003;-59
2021/11/20 01:44:11;;;;;;;;;;;;;;;5.33;62.36;96673.59;5008097;28;20364;-59
2021/11/20 01:46:36;;;;;;;;;;;;;;;5.99;60.34;96664.91;5026225;28;20000;-59
2021/11/20 01:49:09;;;;;;;;;;;;;;;6.20;59.58;96661.50;5025771;28;20008;-59
2021/11/20 01:51:43;;;;;;;;;;;;;;;6.43;58.76;96664.06;5025714;28;20390;-62
2021/11/20 01:54:08;;;;;;;;;;;;;;;6.56;58.17;96661.28;5025968;28;19923;-60
2021/11/20 01:56:36;;;;;;;;;;;;;;;6.70;57.56;96662.78;5025843;28;20246;-61
2021/11/20 01:59:03;;;;;;;;;;;;;;;6.53;57.47;96660.72;4995138;28;20374;-60
2021/11/20 02:01:32;;;;;;;;;;;;;;;6.23;58.03;96653.31;5025412;28;19925;-62
2021/11/20 02:04:15;;;;;;;;;;;;;;;6.20;58.25;96655.38;5007354;28;19927;-61
2021/11/20 02:06:46;;;;;;;;;;;;;;;6.40;57.97;96651.09;5025814;28;19913;-59
2021/11/20 02:09:14;;;;;;;;;;;;;;;5.93;59.25;96649.56;5024659;28;20301;-61
2021/11/20 02:11:41;;;;;;;;;;;;;;;6.61;57.78;96647.69;5025213;28;19925;-61
2021/11/20 02:14:06;;;;;;;;;;;;;;;6.52;57.48;96646.63;5007989;28;19913;-59
2021/11/20 02:16:34;;;;;;;;;;;;;;;6.25;58.02;96646.09;5034283;28;19970;-62
2021/11/20 02:19:00;;;;;;;;;;;;;;;6.56;57.47;96640.13;5026270;28;20436;-61
2021/11/20 02:21:58;;;;;;;;;;;;;;;6.57;57.32;96640.97;5025221;28;19921;-59
2021/11/20 02:24:23;;;;;;;;;;;;;;;6.64;56.67;96636.84;4971223;28;19921;-59
2021/11/20 02:26:49;;;;;;;;;;;;;;;6.48;57.12;96639.88;5025197;28;19927;-60
2021/11/20 02:29:14;;;;;;;;;;;;;;;6.53;56.70;96634.25;5024900;28;20023;-61
2021/11/20 02:31:43;;;;;;;;;;;;;;;6.58;56.91;96630.25;5025326;28;19921;-60
2021/11/20 02:34:08;;;;;;;;;;;;;;;6.56;56.19;96624.25;5024972;28;19917;-59
2021/11/20 02:36:34;;;;;;;;;;;;;;;6.53;56.48;96621.03;5024682;28;19924;-58
2021/11/20 02:39:07;;;;;;;;;;;;;;;6.83;56.11;96620.25;5020198;28;20293;-61
2021/11/20 02:41:32;;;;;;;;;;;;;;;7.01;55.00;96623.13;5024638;28;19917;-61
2021/11/20 02:44:00;;;;;;;;;;;;;;;6.81;55.67;96621.34;5024994;28;19971;-62
2021/11/20 02:46:26;;;;;;;;;;;;;;;6.46;56.61;96626.78;5024979;28;19917;-60
2021/11/20 02:48:52;;;;;;;;;;;;;;;6.52;56.47;96616.72;5024550;28;19928;-59
2021/11/20 02:51:19;;;;;;;;;;;;;;;6.48;56.88;96616.06;5025016;28;19975;-60
2021/11/20 02:53:45;;;;;;;;;;;;;;;6.59;56.17;96623.13;5024830;28;19975;-59
2021/11/20 02:56:12;;;;;;;;;;;;;;;6.84;55.71;96613.16;5024017;28;19917;-61
2021/11/20 02:58:37;;;;;;;;;;;;;;;6.77;55.83;96615.50;5024037;28;19913;-60
2021/11/20 03:01:07;;;;;;;;;;;;;;;7.17;54.28;96616.53;5024799;28;19925;-61
2021/11/20 03:03:32;;;;;;;;;;;;;;;7.04;54.94;96608.78;5024780;28;20421;-59
2021/11/20 03:05:58;;;;;;;;;;;;;;;6.85;55.20;96613.03;5024684;28;19928;-59
2021/11/20 03:08:23;;;;;;;;;;;;;;;6.93;54.91;96604.41;5024221;28;20342;-61
2021/11/20 03:10:48;;;;;;;;;;;;;;;6.96;55.10;96606.81;5024339;28;19952;-60
2021/11/20 03:13:14;;;;;;;;;;;;;;;6.59;56.23;96607.25;5024428;28;19960;-60
2021/11/20 03:15:39;;;;;;;;;;;;;;;6.76;55.31;96605.84;5024010;28;19982;-61
2021/11/20 03:18:04;;;;;;;;;;;;;;;6.74;55.35;96600.69;5024377;28;19914;-60
2021/11/20 03:20:31;;;;;;;;;;;;;;;6.86;54.76;96603.25;5024046;28;19917;-60
2021/11/20 03:23:01;;;;;;;;;;;;;;;7.06;54.72;96592.78;5006360;28;20413;-59
2021/11/20 03:25:26;;;;;;;;;;;;;;;6.85;54.94;96591.00;5024153;28;19917;-60
2021/11/20 03:27:52;;;;;;;;;;;;;;;7.22;54.05;96587.84;5023716;28;20396;-60
2021/11/20 03:30:17;;;;;;;;;;;;;;;7.10;54.09;96588.91;5024257;28;19948;-62
2021/11/20 03:32:43;;;;;;;;;;;;;;;7.24;53.63;96580.59;5006166;28;19917;-60
2021/11/20 03:35:08;;;;;;;;;;;;;;;6.35;55.14;96582.72;5023554;28;19917;-60
2021/11/20 03:37:33;;;;;;;;;;;;;;;7.07;53.59;96583.88;5023707;28;20272;-61
2021/11/20 03:39:59;;;;;;;;;;;;;;;6.77;54.73;96579.25;5018645;28;19929;-59
2021/11/20 03:42:24;;;;;;;;;;;;;;;7.14;53.71;96574.41;5024107;28;19966;-60
2021/11/20 03:44:49;;;;;;;;;;;;;;;7.37;52.54;96579.53;5023276;28;19933;-60
2021/11/20 03:47:14;;;;;;;;;;;;;;;7.33;52.80;96576.31;5023929;28;19917;-62
2021/11/20 03:49:40;;;;;;;;;;;;;;;7.12;53.61;96571.06;5023488;28;19929;-62
2021/11/20 03:52:05;;;;;;;;;;;;;;;7.30;52.85;96563.34;5005809;28;20334;-59
2021/11/20 03:54:31;;;;;;;;;;;;;;;7.48;52.93;96575.97;5023671;28;19921;-59
2021/11/20 03:56:56;;;;;;;;;;;;;;;7.38;52.60;96570.63;5023754;28;19927;-62
2021/11/20 03:59:21;;;;;;;;;;;;;;;7.13;53.48;96568.31;5023550;28;19917;-61
2021/11/20 04:01:46;;;;;;;;;;;;;;;7.23;53.01;96572.78;5023900;28;20394;-59
2021/11/20 04:04:12;;;;;;;;;;;;;;;7.25;51.80;96566.38;5023358;28;19921;-61
2021/11/20 04:06:37;;;;;;;;;;;;;;;7.08;52.77;96570.50;5023697;28;19921;-61
2021/11/20 04:09:02;;;;;;;;;;;;;;;6.63;54.06;96572.47;5022989;28;20019;-60
2021/11/20 04:11:29;;;;;;;;;;;;;;;6.72;53.77;96554.16;5023810;28;19925;-59
2021/11/20 04:13:54;;;;;;;;;;;;;;;6.84;53.40;96558.38;5023348;28;19917;-60
2021/11/20 04:16:20;;;;;;;;;;;;;;;6.66;53.39;96554.69;5023506;28;19992;-60
2021/11/20 04:18:45;;;;;;;;;;;;;;;6.79;53.35;96555.31;5023902;28;20003;-60
2021/11/20 04:21:12;;;;;;;;;;;;;;;6.86;53.08;96558.25;5023196;28;20188;-60
2021/11/20 04:23:37;;;;;;;;;;;;;;;6.90;53.45;96557.03;5005908;28;20271;-60
2021/11/20 04:26:04;;;;;;;;;;;;;;;6.99;52.95;96561.56;5005301;28;19928;-60
2021/11/20 04:28:30;;;;;;;;;;;;;;;6.97;53.10;96547.59;5022924;28;19931;-61
2021/11/20 04:30:57;;;;;;;;;;;;;;;6.78;53.63;96551.00;5022953;28;20830;-60
2021/11/20 04:33:22;;;;;;;;;;;;;;;6.91;53.74;96547.28;5023127;28;19967;-60
2021/11/20 04:35:47;;;;;;;;;;;;;;;6.83;53.60;96555.91;5023260;28;20306;-59
2021/11/20 04:38:13;;;;;;;;;;;;;;;6.88;53.98;96554.50;5027296;28;19966;-62
2021/11/20 04:40:38;;;;;;;;;;;;;;;7.12;53.05;96542.78;5019227;28;20263;-61
2021/11/20 04:43:03;;;;;;;;;;;;;;;6.99;53.65;96548.31;5023232;28;19917;-61
2021/11/20 04:45:31;;;;;;;;;;;;;;;7.24;52.43;96546.16;5023060;28;19925;-60
2021/11/20 04:47:57;;;;;;;;;;;;;;;7.30;52.64;96549.25;5025448;28;20314;-60
2021/11/20 04:50:22;;;;;;;;;;;;;;;7.22;52.89;96552.56;5026930;28;19925;-62
2021/11/20 04:52:47;;;;;;;;;;;;;;;7.02;53.36;96548.06;5026681;28;20020;-62
2021/11/20 04:55:13;;;;;;;;;;;;;;;7.13;52.81;96546.25;5026631;28;19917;-61
2021/11/20 04:57:39;;;;;;;;;;;;;;;7.05;52.63;96543.44;5005236;28;19971;-59
2021/11/20 05:00:08;;;;;;;;;;;;;;;6.91;52.69;96545.50;5017077;28;19921;-61
2021/11/20 05:02:33;;;;;;;;;;;;;;;6.23;53.68;96550.16;5002101;28;19994;-59
2021/11/20 05:04:59;;;;;;;;;;;;;;;6.07;54.41;96542.69;5021656;28;20421;-60
2021/11/20 05:07:24;;;;;;;;;;;;;;;6.06;54.89;96538.34;5022147;28;19921;-61
2021/11/20 05:09:49;;;;;;;;;;;;;;;6.31;53.94;96533.69;5022082;28;20028;-60
2021/11/20 05:12:14;;;;;;;;;;;;;;;6.56;53.11;96528.97;5022068;28;20626;-60
2021/11/20 05:14:40;;;;;;;;;;;;;;;6.50;53.18;96530.34;5022806;28;19921;-60
2021/11/20 05:17:05;;;;;;;;;;;;;;;6.59;53.13;96527.88;5021836;28;19964;-61
2021/11/20 05:19:30;;;;;;;;;;;;;;;6.87;52.42;96531.66;5022455;28;20329;-60
2021/11/20 05:21:55;;;;;;;;;;;;;;;6.83;52.66;96529.44;5021792;28;19925;-60
2021/11/20 05:24:21;;;;;;;;;;;;;;;7.00;52.57;96533.25;5021701;28;19964;-62
2021/11/20 05:26:50;;;;;;;;;;;;;;;6.71;52.85;96526.00;5022076;28;19971;-59
2021/11/20 05:29:28;;;;;;;;;;;;;;;6.82;52.84;96533.03;5021825;28;20578;-59
2021/11/20 05:31:54;;;;;;;;;;;;;;;6.98;52.85;96532.56;5022202;28;19968;-59
2021/11/20 05:34:19;;;;;;;;;;;;;;;6.89;53.10;96532.38;5022056;28;20414;-61
2021/11/20 05:36:44;;;;;;;;;;;;;;;6.47;53.60;96525.28;5021488;28;20490;-61
2021/11/20 05:39:10;;;;;;;;;;;;;;;6.46;54.21;96523.59;5017179;28;19995;-60
2021/11/20 05:41:36;;;;;;;;;;;;;;;6.02;55.47;96530.81;5021541;28;19925;-62
2021/11/20 05:44:01;;;;;;;;;;;;;;;5.90;55.88;96522.94;5021798;28;19971;-59
2021/11/20 05:46:26;;;;;;;;;;;;;;;6.23;55.41;96520.25;5022150;28;19917;-61
2021/11/20 05:48:52;;;;;;;;;;;;;;;6.49;54.44;96515.44;5021339;28;19992;-61
2021/11/20 05:51:17;;;;;;;;;;;;;;;6.29;54.62;96519.72;5021948;28;20504;-60
2021/11/20 05:53:42;;;;;;;;;;;;;;;6.34;55.00;96525.50;5021289;28;20410;-60
2021/11/20 05:56:08;;;;;;;;;;;;;;;6.23;54.15;96528.19;5020996;28;19928;-59
2021/11/20 05:58:33;;;;;;;;;;;;;;;6.10;54.85;96520.44;5010376;28;19952;-61
2021/11/20 06:01:01;;;;;;;;;;;;;;;5.72;55.85;96531.38;5018869;28;19925;-60
2021/11/20 06:03:26;;;;;;;;;;;;;;;5.72;56.08;96528.75;5003699;28;19917;-61
2021/11/20 06:05:52;;;;;;;;;;;;;;;5.86;55.75;96527.59;5004429;28;19944;-60
2021/11/20 06:08:17;;;;;;;;;;;;;;;5.86;55.79;96521.50;5020858;28;20256;-62
2021/11/20 06:10:42;;;;;;;;;;;;;;;5.73;55.12;96521.66;5003477;28;19921;-60
2021/11/20 06:13:08;;;;;;;;;;;;;;;5.60;55.75;96527.94;5020850;28;19936;-60
2021/11/20 06:15:33;;;;;;;;;;;;;;;6.01;54.98;96529.16;5021150;28;20244;-61
2021/11/20 06:17:58;;;;;;;;;;;;;;;5.89;55.88;96515.97;5020684;28;20400;-61
2021/11/20 06:20:24;;;;;;;;;;;;;;;5.35;57.50;96516.69;5020811;28;20632;-61
2021/11/20 06:22:49;;;;;;;;;;;;;;;5.92;53.69;96517.53;5021156;28;20244;-60
2021/11/20 06:25:14;;;;;;;;;;;;;;;6.08;54.04;96514.44;5020467;28;19921;-60
2021/11/20 06:27:39;;;;;;;;;;;;;;;6.09;53.98;96510.84;5021413;28;20019;-60
2021/11/20 06:30:05;;;;;;;;;;;;;;;6.31;53.50;96509.88;5020731;28;19925;-61
2021/11/20 06:32:31;;;;;;;;;;;;;;;6.51;53.40;96515.31;5020854;28;19921;-62
2021/11/20 06:34:56;;;;;;;;;;;;;;;6.63;52.71;96513.41;5020913;28;20345;-62
2021/11/20 06:37:21;;;;;;;;;;;;;;;6.54;52.72;96508.94;5020858;28;19921;-60
2021/11/20 06:39:47;;;;;;;;;;;;;;;6.35;53.21;96507.78;5015435;28;20216;-59
2021/11/20 06:42:12;;;;;;;;;;;;;;;6.35;52.81;96513.09;5020766;28;19928;-61
2021/11/20 06:44:37;;;;;;;;;;;;;;;6.50;52.45;96516.28;5020556;28;20379;-60
2021/11/20 06:47:02;;;;;;;;;;;;;;;6.69;51.50;96512.91;5020792;28;19917;-60
2021/11/20 06:49:28;;;;;;;;;;;;;;;6.55;51.32;96519.38;5002319;28;20051;-62
2021/11/20 06:51:53;;;;;;;;;;;;;;;6.49;51.93;96518.09;5020331;28;19968;-60
2021/11/20 06:54:18;;;;;;;;;;;;;;;6.61;51.08;96513.56;5020782;28;19917;-59
2021/11/20 06:56:47;;;;;;;;;;;;;;;6.66;51.77;96518.47;5019935;28;20357;-60
2021/11/20 06:59:19;;;;;;;;;;;;;;;6.88;50.82;96519.28;5019737;28;19947;-61
2021/11/20 07:01:44;;;;;;;;;;;;;;;7.20;49.71;96523.56;5002971;28;20333;-61
2021/11/20 07:04:14;;;;;;;;;;;;;;;7.02;49.66;96518.06;5019828;28;19925;-62
2021/11/20 07:06:43;;;;;;;;;;;;;;;6.97;50.49;96518.47;5020144;28;20436;-60
2021/11/20 07:09:09;;;;;;;;;;;;;;;6.98;50.37;96517.53;5019802;28;19929;-59
2021/11/20 07:11:34;;;;;;;;;;;;;;;7.06;50.27;96521.28;5020250;28;20353;-61
2021/11/20 07:13:59;;;;;;;;;;;;;;;7.18;50.44;96514.94;5019946;28;20265;-60
2021/11/20 07:16:25;;;;;;;;;;;;;;;7.21;50.08;96517.28;5019876;28;20434;-60
2021/11/20 07:18:50;;;;;;;;;;;;;;;7.31;49.86;96516.50;5020300;28;19921;-61
2021/11/20 07:21:17;;;;;;;;;;;;;;;7.47;50.13;96506.22;5019929;28;20014;-60
2021/11/20 07:23:43;;;;;;;;;;;;;;;7.50;49.33;96511.25;5019533;28;19921;-62
2021/11/20 07:26:08;;;;;;;;;;;;;;;7.53;49.88;96510.13;5019731;28;19921;-61
2021/11/20 07:28:33;;;;;;;;;;;;;;;7.60;48.71;96510.41;5019711;28;19921;-60
2021/11/20 07:30:59;;;;;;;;;;;;;;;7.46;49.50;96509.00;5019706;28;19921;-61
2021/11/20 07:33:24;;;;;;;;;;;;;;;7.56;48.80;96506.38;5019037;28;20305;-62
2021/11/20 07:35:51;;;;;;;;;;;;;;;7.19;50.20;96508.66;5001679;28;19929;-62
2021/11/20 07:38:18;;;;;;;;;;;;;;;7.29;49.93;96508.69;5019808;28;20016;-60
2021/11/20 07:40:43;;;;;;;;;;;;;;;7.34;50.41;96503.00;5014139;28;20019;-60
2021/11/20 07:43:09;;;;;;;;;;;;;;;7.11;50.34;96503.19;5019646;28;20007;-62
2021/11/20 07:45:34;;;;;;;;;;;;;;;7.13;50.74;96496.78;5019501;28;19921;-61
2021/11/20 07:48:06;;;;;;;;;;;;;;;7.08;51.06;96495.53;5019003;28;20290;-60
2021/11/20 07:50:31;;;;;;;;;;;;;;;6.79;51.71;96488.28;5001935;28;19959;-61
2021/11/20 07:52:57;;;;;;;;;;;;;;;6.98;51.42;96492.84;5019216;28;20366;-60
2021/11/20 07:55:22;;;;;;;;;;;;;;;6.61;52.14;96489.75;5019870;28;19948;-60
2021/11/20 07:57:47;;;;;;;;;;;;;;;6.45;52.75;96484.06;5014558;28;19921;-62
2021/11/20 08:00:14;;;;;;;;;;;;;;;6.58;52.64;96491.81;5011065;28;19960;-61
2021/11/20 08:02:39;;;;;;;;;;;;;;;6.57;52.23;96492.78;5019725;28;20052;-60
2021/11/20 08:05:05;;;;;;;;;;;;;;;6.62;51.68;96485.28;5019501;28;20020;-60
2021/11/20 08:07:30;;;;;;;;;;;;;;;6.57;51.27;96487.50;5019482;28;19975;-60
2021/11/20 08:09:56;;;;;;;;;;;;;;;6.68;51.64;96489.22;5019144;28;19968;-61
2021/11/20 08:12:21;;;;;;;;;;;;;;;6.68;50.96;96484.78;5019110;28;20152;-62
2021/11/20 08:14:46;;;;;;;;;;;;;;;6.54;51.14;96490.41;5019599;28;19921;-61
2021/11/20 08:17:12;;;;;;;;;;;;;;;6.64;50.89;96488.66;5018908;28;19921;-60
2021/11/20 08:19:37;;;;;;;;;;;;;;;6.30;51.49;96494.13;5018847;28;19925;-60
2021/11/20 08:22:02;;;;;;;;;;;;;;;6.54;51.20;96482.47;5020034;28;20324;-59
2021/11/20 08:24:28;;;;;;;;;;;;;;;6.22;51.41;96482.38;5022754;28;19928;-59
2021/11/20 08:26:53;;;;;;;;;;;;;;;5.95;52.93;96485.56;5022834;28;19925;-62
2021/11/20 08:29:19;;;;;;;;;;;;;;;6.24;52.42;96466.41;5022739;28;20185;-62
2021/11/20 08:31:45;;;;;;;;;;;;;;;6.54;51.70;96470.09;5022264;28;19921;-61
2021/11/20 08:34:13;;;;;;;;;;;;;;;6.54;51.92;96467.44;5022403;28;20401;-60
2021/11/20 08:36:39;;;;;;;;;;;;;;;6.70;51.83;96474.88;5022657;28;19948;-61
2021/11/20 08:39:04;;;;;;;;;;;;;;;6.45;52.00;96469.03;5002469;28;20596;-62
2021/11/20 08:41:30;;;;;;;;;;;;;;;6.85;51.47;96471.88;5022472;28;20283;-61
2021/11/20 08:43:55;;;;;;;;;;;;;;;6.88;51.58;96458.38;5022845;28;22664;-62
2021/11/20 08:46:20;;;;;;;;;;;;;;;6.82;51.67;96470.34;5004728;28;20159;-60
2021/11/20 08:48:45;;;;;;;;;;;;;;;6.97;51.18;96456.75;5022615;28;19921;-61
2021/11/20 08:51:15;;;;;;;;;;;;;;;7.11;50.46;96452.88;5022314;28;20070;-62
2021/11/20 08:53:40;;;;;;;;;;;;;;;7.17;49.40;96449.69;5004377;28;20310;-61
2021/11/20 08:56:06;;;;;;;;;;;;;;;7.08;48.71;96453.16;5021686;28;19921;-61
2021/11/20 08:58:32;;;;;;;;;;;;;;;6.46;50.25;96454.81;5021997;28;19917;-61
2021/11/20 09:01:06;;;;;;;;;;;;;;;6.40;51.10;96446.59;5022033;28;19986;-60
2021/11/20 09:03:50;;;;;;;;;;;;;;;6.29;50.51;96452.78;5022568;28;19917;-62
2021/11/20 09:06:24;;;;;;;;;;;;;;;6.35;51.41;96447.81;5022447;28;19953;-60
2021/11/20 09:09:08;;;;;;;;;;;;;;;6.56;50.54;96443.50;5022023;28;19933;-62
2021/11/20 09:11:33;;;;;;;;;;;;;;;7.03;49.51;96448.25;5022166;28;19976;-62
2021/11/20 09:14:17;;;;;;;;;;;;;;;7.11;49.72;96448.41;5022028;28;20602;-62
2021/11/20 09:16:42;;;;;;;;;;;;;;;7.14;50.39;96447.28;5021826;28;20432;-61
2021/11/20 09:19:08;;;;;;;;;;;;;;;7.50;49.28;96433.56;5008469;28;19963;-60
2021/11/20 09:21:33;;;;;;;;;;;;;;;7.27;50.07;96432.00;5021686;28;20297;-62
2021/11/20 09:23:59;;;;;;;;;;;;;;;7.33;49.24;96443.03;5009610;28;19924;-61
2021/11/20 09:26:25;;;;;;;;;;;;;;;7.37;50.14;96436.47;5004091;28;19917;-60
2021/11/20 09:28:50;;;;;;;;;;;;;;;7.85;49.02;96421.59;5021915;28;20362;-62
2021/11/20 09:31:15;;;;;;;;;;;;;;;7.96;48.61;96419.78;5021812;28;19936;-62
2021/11/20 09:33:41;;;;;;;;;;;;;;;8.00;47.64;96418.50;5020560;28;19921;-62
2021/11/20 09:36:06;;;;;;;;;;;;;;;8.15;47.42;96414.44;5003382;28;19944;-62
2021/11/20 09:38:32;;;;;;;;;;;;;;;7.91;48.15;96422.84;5021145;28;20180;-61
2021/11/20 09:40:58;;;;;;;;;;;;;;;7.92;47.39;96421.84;5018329;28;19921;-62
2021/11/20 09:43:24;;;;;;;;;;;;;;;7.93;47.97;96420.91;5004010;28;20012;-62
2021/11/20 09:45:55;;;;;;;;;;;;;;;8.17;47.06;96415.13;5003741;28;19928;-61
2021/11/20 09:48:26;;;;;;;;;;;;;;;8.15;47.90;96410.94;5021379;28;20465;-60
2021/11/20 09:50:51;;;;;;;;;;;;;;;7.98;47.30;96410.69;5021549;28;19925;-61
2021/11/20 09:53:16;;;;;;;;;;;;;;;6.75;49.48;96417.13;5021226;28;19921;-60
2021/11/20 09:55:43;;;;;;;;;;;;;;;6.92;50.58;96419.22;5020694;28;19927;-62
2021/11/20 09:58:08;;;;;;;;;;;;;;;7.68;48.08;96406.38;5014047;28;19929;-60
2021/11/20 10:00:52;;;;;;;;;;;;;;;7.91;47.89;96405.13;5015848;28;19921;-61
2021/11/20 10:03:29;;;;;;;;;;;;;;;8.16;46.94;96400.19;5021709;28;19917;-61
2021/11/20 10:05:59;;;;;;;;;;;;;;;8.13;47.24;96394.34;5021213;28;19928;-62
2021/11/20 10:08:25;;;;;;;;;;;;;;;8.18;47.34;96400.03;5021163;28;19929;-60
2021/11/20 10:10:57;;;;;;;;;;;;;;;8.13;46.72;96397.00;5020971;28;19929;-60
2021/11/20 10:13:23;;;;;;;;;;;;;;;7.87;46.40;96400.25;5020862;28;20138;-60
2021/11/20 10:15:51;;;;;;;;;;;;;;;7.57;46.71;96388.78;5007841;28;20011;-60
2021/11/20 10:18:21;;;;;;;;;;;;;;;8.02;46.07;96384.72;5021317;28;20269;-59
2021/11/20 10:21:07;;;;;;;;;;;;;;;8.23;45.43;96383.72;5021046;28;20008;-61
2021/11/20 10:23:49;;;;;;;;;;;;;;;8.41;45.52;96379.31;4979787;28;19917;-61
2021/11/20 10:26:15;;;;;;;;;;;;;;;7.88;47.23;96372.75;5021152;28;19932;-62
2021/11/20 10:29:06;;;;;;;;;;;;;;;7.30;48.77;96371.75;5020517;28;19928;-59
2021/11/20 10:31:31;;;;;;;;;;;;;;;6.64;49.82;96380.16;5020660;28;19932;-60
2021/11/20 10:34:06;;;;;;;;;;;;;;;6.96;49.94;96381.78;5020543;28;20210;-62
2021/11/20 10:36:34;;;;;;;;;;;;;;;7.27;48.62;96368.44;5020410;28;19920;-61
2021/11/20 10:39:05;;;;;;;;;;;;;;;6.86;49.11;96379.09;5016170;28;19921;-61
2021/11/20 10:41:35;;;;;;;;;;;;;;;6.74;49.48;96375.72;5020626;28;19925;-62
2021/11/20 10:44:19;;;;;;;;;;;;;;;7.01;49.99;96374.25;5020592;28;19932;-61
2021/11/20 10:46:47;;;;;;;;;;;;;;;7.28;49.10;96364.81;5021012;28;19952;-61
2021/11/20 10:49:31;;;;;;;;;;;;;;;6.62;50.10;96374.16;5020494;28;20260;-59
2021/11/20 10:52:15;;;;;;;;;;;;;;;7.13;47.82;96369.69;5020145;28;19921;-61
2021/11/20 10:54:50;;;;;;;;;;;;;;;7.35;46.84;96351.00;5020266;28;20429;-62
2021/11/20 10:57:22;;;;;;;;;;;;;;;7.26;46.61;96348.22;5001963;28;19921;-61
2021/11/20 11:00:06;;;;;;;;;;;;;;;7.46;45.98;96353.53;5008650;28;19924;-60
2021/11/20 11:02:34;;;;;;;;;;;;;;;7.05;48.06;96353.66;5020211;28;20456;-58
2021/11/20 11:05:02;;;;;;;;;;;;;;;6.88;47.98;96352.50;5020292;28;20299;-59
2021/11/20 11:07:27;;;;;;;;;;;;;;;6.85;48.04;96342.19;5019854;28;19917;-59
2021/11/20 11:09:57;;;;;;;;;;;;;;;6.94;47.99;96341.34;5020099;28;19951;-60
2021/11/20 11:12:41;;;;;;;;;;;;;;;6.96;47.06;96331.47;5001927;28;19924;-61
2021/11/20 11:15:09;;;;;;;;;;;;;;;7.22;47.59;96323.00;5020133;28;20016;-60
2021/11/20 11:17:40;;;;;;;;;;;;;;;7.44;46.72;96313.06;5019761;28;19921;-58
2021/11/20 11:20:12;;;;;;;;;;;;;;;6.97;48.02;96313.78;5034434;28;20008;-59
2021/11/20 11:22:38;;;;;;;;;;;;;;;6.66;48.30;96311.22;5020089;28;20464;-60
2021/11/20 11:25:10;;;;;;;;;;;;;;;6.39;49.47;96302.91;5001948;28;20135;-57
2021/11/20 11:27:38;;;;;;;;;;;;;;;6.61;49.54;96298.41;5001689;28;19970;-59
2021/11/20 11:30:09;;;;;;;;;;;;;;;6.45;49.38;96298.88;5019620;28;19921;-58
2021/11/20 11:32:35;;;;;;;;;;;;;;;6.03;50.56;96291.91;5019453;28;19921;-56
2021/11/20 11:35:21;;;;;;;;;;;;;;;5.15;52.63;96290.44;5019486;28;19954;-58
2021/11/20 11:37:52;;;;;;;;;;;;;;;6.33;49.95;96285.75;5001462;28;20013;-58
2021/11/20 11:40:21;;;;;;;;;;;;;;;6.66;50.25;96279.47;5014392;28;19921;-59
2021/11/20 11:42:55;;;;;;;;;;;;;;;6.29;49.61;96273.78;5002189;28;20293;-58
2021/11/20 11:45:20;;;;;;;;;;;;;;;6.27;49.98;96264.31;5001806;28;19996;-58
2021/11/20 11:47:56;;;;;;;;;;;;;;;5.78;51.51;96271.06;5019026;28;20517;-57
2021/11/20 11:50:40;;;;;;;;;;;;;;;6.14;50.15;96262.75;5001503;28;19979;-60
2021/11/20 11:53:11;;;;;;;;;;;;;;;5.07;53.53;96262.84;5019249;28;19921;-59
2021/11/20 11:55:46;;;;;;;;;;;;;;;6.02;50.88;96259.34;5019356;28;20019;-57
2021/11/20 11:58:19;;;;;;;;;;;;;;;6.50;49.92;96251.75;4992890;28;19987;-58
2021/11/20 12:00:48;;;;;;;;;;;;;;;6.64;49.54;96240.75;5015010;28;19921;-57
2021/11/20 12:03:14;;;;;;;;;;;;;;;6.64;49.48;96234.63;5019308;28;19917;-58
2021/11/20 12:05:43;;;;;;;;;;;;;;;6.84;48.91;96227.53;5018736;28;19932;-58
2021/11/20 12:08:36;;;;;;;;;;;;;;;6.39;49.81;96223.56;5018663;28;20398;-58
2021/11/20 12:11:07;;;;;;;;;;;;;;;6.24;50.95;96221.31;4988784;28;19932;-58
2021/11/20 12:13:40;;;;;;;;;;;;;;;5.42;51.57;96234.47;5001526;28;19962;-58
2021/11/20 12:16:12;;;;;;;;;;;;;;;5.95;51.14;96223.88;5019030;28;19921;-57
2021/11/20 12:18:46;;;;;;;;;;;;;;;6.02;51.27;96213.59;5018779;28;21533;-57
2021/11/20 12:21:21;;;;;;;;;;;;;;;6.88;48.80;96210.38;5018783;28;19979;-58
2021/11/20 12:24:05;;;;;;;;;;;;;;;6.73;48.86;96204.69;5001290;28;20122;-57
2021/11/20 12:26:33;;;;;;;;;;;;;;;7.39;48.54;96194.28;5018708;28;19917;-57
2021/11/20 12:29:05;;;;;;;;;;;;;;;7.28;48.24;96211.19;5018359;28;19925;-57
2021/11/20 12:31:39;;;;;;;;;;;;;;;7.30;47.93;96191.66;5019396;28;19975;-57
2021/11/20 12:34:17;;;;;;;;;;;;;;;6.66;49.44;96190.34;5001323;28;20171;-57
2021/11/20 12:36:42;;;;;;;;;;;;;;;5.88;51.74;96202.41;4997598;28;20485;-57
2021/11/20 12:39:19;;;;;;;;;;;;;;;6.18;50.60;96176.91;5016576;28;19917;-57
2021/11/20 12:41:57;;;;;;;;;;;;;;;6.18;50.50;96171.59;5019244;28;19925;-62
2021/11/20 12:44:30;;;;;;;;;;;;;;;6.16;50.64;96168.28;5019081;28;20487;-57
2021/11/20 12:47:14;;;;;;;;;;;;;;;5.16;53.32;96165.38;5002007;28;19998;-61
2021/11/20 12:49:58;;;;;;;;;;;;;;;5.38;52.72;96160.91;5018948;28;19949;-57
2021/11/20 12:52:26;;;;;;;;;;;;;;;5.41;52.27;96160.66;5018546;28;19927;-57
2021/11/20 12:55:01;;;;;;;;;;;;;;;5.63;52.63;96150.88;5019058;28;20378;-58
2021/11/20 12:57:29;;;;;;;;;;;;;;;5.53;53.15;96146.41;5016583;28;19920;-59
2021/11/20 13:00:17;;;;;;;;;;;;;;;4.90;54.25;96142.03;5022504;28;20510;-58
2021/11/20 13:02:45;;;;;;;;;;;;;;;4.57;55.48;96139.44;5007916;28;20251;-61